Time;durP1;ratioP1;P1;durP2;ratioP2;P2;SDS_P1;SDS_P2;PMS_P1;PMS_P2;Temp;Humidity;BMP_temperature;BMP_pressure;BME280_temperature;BME280_humidity;BME280_pressure;Samples;Min_cycle;Max_cycle;Signal;HPM_P1;HPM_P2
2023/10/11 00:01:55;;;;;;;0.00;0.00;;;;;;;15.24;100.00;96736.44;5020598;28;20045;-77
2023/10/11 00:04:41;;;;;;;0.08;0.08;;;;;;;15.04;100.00;96734.59;5023080;28;20069;-77
2023/10/11 00:07:27;;;;;;;0.10;0.10;;;;;;;14.82;100.00;96739.44;5022903;28;20037;-76
2023/10/11 00:10:19;;;;;;;0.00;0.00;;;;;;;14.72;100.00;96726.75;5021267;28;20414;-76
2023/10/11 00:13:09;;;;;;;0.10;0.10;;;;;;;14.84;100.00;96725.69;5021874;28;20045;-77
2023/10/11 00:15:55;;;;;;;0.10;0.10;;;;;;;14.93;100.00;96724.06;5020642;28;20045;-77
2023/10/11 00:18:42;;;;;;;0.00;0.00;;;;;;;14.99;100.00;96723.00;5022251;28;20045;-77
2023/10/11 00:21:41;;;;;;;0.10;0.10;;;;;;;14.87;100.00;96720.59;5022851;28;20041;-77
2023/10/11 00:24:28;;;;;;;0.10;0.10;;;;;;;14.91;100.00;96721.66;5022812;28;20057;-74
2023/10/11 00:27:16;;;;;;;0.10;0.10;;;;;;;14.90;100.00;96716.53;5020852;28;20498;-74
2023/10/11 00:30:06;;;;;;;0.10;0.10;;;;;;;14.86;100.00;96707.34;5021586;28;20077;-74
2023/10/11 00:32:52;;;;;;;0.10;0.10;;;;;;;14.83;100.00;96706.03;5007953;28;20977;-74
2023/10/11 00:35:47;;;;;;;0.10;0.10;;;;;;;14.76;100.00;96708.97;5008110;28;20053;-74
2023/10/11 00:38:43;;;;;;;0.10;0.10;;;;;;;14.68;100.00;96701.44;5022060;28;20155;-76
2023/10/11 00:41:31;;;;;;;0.00;0.00;;;;;;;14.59;100.00;96713.81;5008779;28;20127;-75
2023/10/11 00:44:20;;;;;;;0.10;0.10;;;;;;;14.53;100.00;96706.00;5019453;28;20106;-75
2023/10/11 00:47:08;;;;;;;0.20;0.15;;;;;;;14.46;100.00;96688.22;5020627;28;20053;-75
2023/10/11 00:49:53;;;;;;;0.10;0.10;;;;;;;14.41;100.00;96695.47;5002705;28;20047;-75
2023/10/11 00:52:40;;;;;;;0.00;0.00;;;;;;;14.43;100.00;96699.50;5021371;28;20558;-75
2023/10/11 00:55:29;;;;;;;0.10;0.10;;;;;;;14.32;100.00;96694.34;5020028;28;20041;-75
2023/10/11 00:58:15;;;;;;;0.10;0.10;;;;;;;14.31;100.00;96692.72;5020632;28;20049;-75
2023/10/11 01:01:03;;;;;;;0.20;0.20;;;;;;;14.31;100.00;96693.53;5021286;28;20045;-75
2023/10/11 01:03:49;;;;;;;0.00;0.00;;;;;;;14.34;100.00;96676.06;5034572;28;20129;-75
2023/10/11 01:06:35;;;;;;;0.10;0.10;;;;;;;14.40;100.00;96678.50;5021788;28;20180;-75
2023/10/11 01:09:28;;;;;;;0.00;0.00;;;;;;;14.39;100.00;96684.13;5033856;28;20075;-76
2023/10/11 01:12:14;;;;;;;0.08;0.08;;;;;;;14.35;100.00;96677.69;5021523;28;20045;-76
2023/10/11 01:15:01;;;;;;;0.10;0.10;;;;;;;14.42;100.00;96678.22;5021363;28;20048;-76
2023/10/11 01:17:46;;;;;;;0.10;0.10;;;;;;;14.42;100.00;96681.72;5031502;28;20055;-76
2023/10/11 01:20:36;;;;;;;0.08;0.08;;;;;;;14.41;100.00;96673.94;5018694;28;20483;-77
2023/10/11 01:23:22;;;;;;;0.10;0.10;;;;;;;14.40;100.00;96672.31;5020295;28;20152;-77
2023/10/11 01:26:08;;;;;;;0.10;0.10;;;;;;;14.41;100.00;96673.94;5021871;28;20478;-77
2023/10/11 01:28:56;;;;;;;0.00;0.00;;;;;;;14.37;100.00;96670.94;5020881;28;20053;-77
2023/10/11 01:31:42;;;;;;;0.10;0.10;;;;;;;14.34;100.00;96668.00;5018610;28;20053;-77
2023/10/11 01:34:30;;;;;;;0.00;0.00;;;;;;;14.29;100.00;96668.78;5023257;28;20075;-77
2023/10/11 01:37:17;;;;;;;0.10;0.10;;;;;;;14.22;100.00;96662.84;5017687;28;20083;-77
2023/10/11 01:40:08;;;;;;;0.10;0.10;;;;;;;14.28;100.00;96669.84;5018368;28;20127;-77
2023/10/11 01:42:54;;;;;;;0.10;0.10;;;;;;;14.25;100.00;96664.22;5018190;28;20053;-77
2023/10/11 01:45:40;;;;;;;0.10;0.10;;;;;;;14.21;100.00;96661.22;5034387;28;20499;-77
2023/10/11 01:48:26;;;;;;;0.10;0.10;;;;;;;14.24;100.00;96658.03;5033213;28;20103;-76
2023/10/11 01:51:23;;;;;;;0.10;0.10;;;;;;;14.20;100.00;96662.31;5020254;28;20042;-77
2023/10/11 01:54:11;;;;;;;0.10;0.10;;;;;;;14.14;100.00;96648.03;5019428;28;20971;-77
2023/10/11 01:57:01;;;;;;;0.00;0.00;;;;;;;14.15;100.00;96649.63;5035522;28;20061;-77
2023/10/11 01:59:46;;;;;;;0.10;0.10;;;;;;;14.16;100.00;96645.06;5033069;28;20048;-75
2023/10/11 02:02:35;;;;;;;0.10;0.10;;;;;;;14.19;100.00;96645.34;5019712;28;20125;-76
2023/10/11 02:05:25;;;;;;;0.10;0.10;;;;;;;14.20;100.00;96646.16;5035806;28;20048;-76
2023/10/11 02:08:17;;;;;;;0.10;0.10;;;;;;;14.19;100.00;96650.72;5020602;28;20044;-75
2023/10/11 02:11:05;;;;;;;0.00;0.00;;;;;;;14.19;100.00;96641.84;5034775;28;20080;-77
2023/10/11 02:13:52;;;;;;;0.10;0.10;;;;;;;14.13;100.00;96645.59;5021442;28;20499;-76
2023/10/11 02:16:39;;;;;;;0.10;0.10;;;;;;;14.12;100.00;96641.31;5031934;28;20041;-77
2023/10/11 02:19:25;;;;;;;0.10;0.10;;;;;;;14.10;100.00;96641.56;5033795;28;20346;-75
2023/10/11 02:22:11;;;;;;;0.10;0.10;;;;;;;14.08;100.00;96643.69;5021669;28;20051;-75
2023/10/11 02:24:59;;;;;;;0.10;0.10;;;;;;;13.99;100.00;96656.06;5037833;28;20044;-76
2023/10/11 02:27:49;;;;;;;0.00;0.00;;;;;;;13.90;100.00;96653.06;5024967;28;20048;-76
2023/10/11 02:30:38;;;;;;;0.10;0.10;;;;;;;13.83;100.00;96654.41;5024287;28;20050;-76
2023/10/11 02:33:24;;;;;;;0.10;0.10;;;;;;;13.65;100.00;96661.06;5035949;28;20478;-77
2023/10/11 02:36:17;;;;;;;0.10;0.10;;;;;;;13.63;100.00;96655.16;5024240;28;20049;-77
2023/10/11 02:39:06;;;;;;;0.10;0.10;;;;;;;13.76;100.00;96654.63;5023512;28;20065;-75
2023/10/11 02:41:58;;;;;;;0.10;0.10;;;;;;;13.78;100.00;96649.84;5023247;28;20159;-76
2023/10/11 02:44:44;;;;;;;0.10;0.10;;;;;;;13.82;100.00;96650.91;5022415;28;20127;-76
2023/10/11 02:47:29;;;;;;;0.10;0.10;;;;;;;13.73;100.00;96655.19;5023294;28;20069;-76
2023/10/11 02:50:15;;;;;;;0.10;0.10;;;;;;;13.61;100.00;96654.59;5024949;28;20048;-76
2023/10/11 02:53:12;;;;;;;0.10;0.10;;;;;;;13.52;100.00;96645.41;5024795;28;20041;-75
2023/10/11 02:55:58;;;;;;;0.10;0.10;;;;;;;13.52;100.00;96638.16;5024608;28;20080;-76
2023/10/11 02:58:45;;;;;;;0.10;0.10;;;;;;;13.64;100.00;96629.88;5023787;28;20048;-76
2023/10/11 03:01:31;;;;;;;0.00;0.00;;;;;;;13.69;100.00;96640.63;5036315;28;20060;-76
2023/10/11 03:04:19;;;;;;;0.10;0.10;;;;;;;13.74;100.00;96624.53;5020534;28;20041;-76
2023/10/11 03:07:12;;;;;;;0.10;0.10;;;;;;;13.75;100.00;96622.63;5025063;28;20045;-76
2023/10/11 03:09:58;;;;;;;0.10;0.10;;;;;;;13.76;100.00;96618.88;5024339;28;20045;-76
2023/10/11 03:12:44;;;;;;;0.10;0.10;;;;;;;13.78;100.00;96622.94;5038350;28;20045;-76
2023/10/11 03:15:30;;;;;;;0.10;0.10;;;;;;;13.78;100.00;96617.56;5022615;28;20095;-75
2023/10/11 03:18:16;;;;;;;0.10;0.10;;;;;;;13.77;100.00;96617.78;5025377;28;20094;-76
2023/10/11 03:21:20;;;;;;;0.10;0.10;;;;;;;13.73;100.00;96614.03;5025078;28;20049;-76
2023/10/11 03:24:07;;;;;;;0.00;0.00;;;;;;;13.75;100.00;96611.88;5038364;28;20584;-76
2023/10/11 03:26:52;;;;;;;0.10;0.10;;;;;;;13.71;100.00;96608.94;5021699;28;20045;-76
2023/10/11 03:29:40;;;;;;;0.00;0.00;;;;;;;13.63;100.00;96615.63;5023798;28;20049;-76
2023/10/11 03:32:26;;;;;;;0.00;0.00;;;;;;;13.61;100.00;96616.94;5019013;28;20691;-75
2023/10/11 03:35:18;;;;;;;0.10;0.10;;;;;;;13.56;100.00;96603.50;5020712;28;20045;-76
2023/10/11 03:38:16;;;;;;;0.10;0.10;;;;;;;13.48;100.00;96602.13;5022839;28;20084;-76
2023/10/11 03:41:14;;;;;;;0.00;0.00;;;;;;;13.34;100.00;96601.00;5021712;28;20046;-77
2023/10/11 03:44:09;;;;;;;0.10;0.10;;;;;;;13.24;100.00;96595.56;5036425;28;20049;-77
2023/10/11 03:46:55;;;;;;;0.10;0.10;;;;;;;13.20;100.00;96605.22;5019209;28;20506;-76
2023/10/11 03:52:33;;;;;;;0.03;0.03;;;;;;;13.07;100.00;96601.06;5022689;28;20041;-76
2023/10/11 03:55:19;;;;;;;0.10;0.10;;;;;;;13.06;100.00;96597.59;5001544;28;20048;-77
2023/10/11 03:58:05;;;;;;;0.10;0.10;;;;;;;13.07;100.00;96603.75;5002794;28;20121;-76
2023/10/11 04:00:52;;;;;;;0.00;0.00;;;;;;;13.05;100.00;96601.34;5004780;28;20046;-76
2023/10/11 04:03:42;;;;;;;0.10;0.10;;;;;;;13.02;100.00;96604.56;5004899;28;20172;-76
2023/10/11 04:06:27;;;;;;;0.10;0.10;;;;;;;13.06;100.00;96613.69;5006501;28;20046;-76
2023/10/11 04:09:31;;;;;;;0.10;0.10;;;;;;;13.08;100.00;96603.53;5005932;28;20594;-77
2023/10/11 04:12:17;;;;;;;0.10;0.10;;;;;;;13.18;100.00;96602.75;5004736;28;20637;-75
2023/10/11 04:15:15;;;;;;;0.10;0.10;;;;;;;13.18;100.00;96602.75;5003846;28;20077;-75
2023/10/11 04:18:14;;;;;;;0.10;0.10;;;;;;;13.13;100.00;96610.78;5004644;28;20034;-74
2023/10/11 04:23:55;;;;;;;0.10;0.10;;;;;;;13.09;100.00;96602.47;5004630;28;20046;-75
2023/10/11 04:26:41;;;;;;;0.10;0.10;;;;;;;13.00;100.00;96590.59;5003747;28;20038;-75
2023/10/11 04:29:31;;;;;;;0.10;0.10;;;;;;;13.05;100.00;96601.34;5005937;28;20045;-74
2023/10/11 04:35:36;;;;;;;0.00;0.00;;;;;;;13.01;100.00;96597.56;5004176;28;20056;-74
2023/10/11 04:38:22;;;;;;;0.10;0.10;;;;;;;12.99;100.00;96605.06;5004345;28;20519;-76
2023/10/11 04:41:14;;;;;;;0.10;0.10;;;;;;;13.02;100.00;96603.75;5001222;28;20053;-75
2023/10/11 04:44:04;;;;;;;0.00;0.00;;;;;;;12.95;100.00;96603.97;5003834;28;20045;-75
2023/10/11 04:47:00;;;;;;;0.10;0.10;;;;;;;12.88;100.00;96613.34;5001248;28;20099;-75
2023/10/11 04:49:48;;;;;;;0.10;0.10;;;;;;;12.73;100.00;96614.84;5002857;28;20046;-75
2023/10/11 04:52:36;;;;;;;0.10;0.10;;;;;;;12.63;100.00;96622.03;5001038;28;20034;-75
2023/10/11 04:55:34;;;;;;;0.10;0.10;;;;;;;12.59;100.00;96626.28;5003879;28;20057;-75
2023/10/11 05:01:39;;;;;;;0.10;0.10;;;;;;;12.59;100.00;96628.97;5001484;28;20741;-75
2023/10/11 05:04:31;;;;;;;0.10;0.10;;;;;;;12.51;100.00;96625.69;4987620;28;20044;-74
2023/10/11 05:07:19;;;;;;;0.10;0.10;;;;;;;12.51;100.00;96636.41;5002489;28;20038;-75
2023/10/11 05:10:29;;;;;;;0.10;0.10;;;;;;;12.45;100.00;96620.53;5002356;28;20662;-75
2023/10/11 05:13:13;;;;;;;0.10;0.10;;;;;;;12.46;100.00;96611.44;5002827;28;20037;-75
2023/10/11 05:16:06;;;;;;;0.10;0.10;;;;;;;12.48;100.00;96620.03;5002460;28;20471;-75
2023/10/11 05:18:51;;;;;;;0.13;0.10;;;;;;;12.49;100.00;96616.28;5005050;28;20048;-75
2023/10/11 05:21:40;;;;;;;0.10;0.10;;;;;;;12.53;100.00;96607.47;5002005;28;20045;-75
2023/10/11 05:24:54;;;;;;;0.13;0.10;;;;;;;12.64;100.00;96607.53;5004964;28;20044;-75
2023/10/11 05:27:49;;;;;;;0.00;0.00;;;;;;;12.71;100.00;96614.31;5000166;28;20104;-75
2023/10/11 05:30:37;;;;;;;0.10;0.10;;;;;;;12.71;100.00;96603.56;4999031;28;20053;-76
2023/10/11 05:33:44;;;;;;;0.10;0.10;;;;;;;12.73;100.00;96605.97;5001240;28;20132;-75
2023/10/11 05:51:45;;;;;;;0.00;0.00;;;;;;;12.23;100.00;96615.25;5001342;28;20041;-75
2023/10/11 05:54:34;;;;;;;0.10;0.10;;;;;;;12.14;100.00;96619.44;5015858;28;20422;-75
2023/10/11 05:57:23;;;;;;;0.10;0.10;;;;;;;12.08;100.00;96615.94;5018288;28;20041;-75
2023/10/11 06:00:17;;;;;;;0.10;0.10;;;;;;;12.07;100.00;96626.91;5021879;28;20171;-75
2023/10/11 06:03:06;;;;;;;0.10;0.10;;;;;;;12.05;100.00;96631.69;5020956;28;20141;-76
2023/10/11 06:05:51;;;;;;;0.10;0.10;;;;;;;11.99;100.00;96620.13;5021573;28;20412;-76
2023/10/11 06:08:38;;;;;;;0.10;0.10;;;;;;;12.03;100.00;96620.44;5022493;28;20048;-76
2023/10/11 06:11:29;;;;;;;0.10;0.10;;;;;;;12.17;100.00;96616.28;5019609;28;20850;-76
2023/10/11 06:14:18;;;;;;;0.10;0.10;;;;;;;12.26;100.00;96612.88;5022427;28;20076;-75
2023/10/11 06:17:05;;;;;;;0.10;0.10;;;;;;;12.42;100.00;96634.47;5019908;28;20045;-75
2023/10/11 06:19:54;;;;;;;0.10;0.10;;;;;;;12.50;100.00;96626.75;5021591;28;20037;-75
2023/10/11 06:22:40;;;;;;;0.10;0.10;;;;;;;12.54;100.00;96614.44;5021157;28;20079;-76
2023/10/11 06:28:32;;;;;;;0.10;0.10;;;;;;;12.68;100.00;96619.34;5022283;28;20538;-75
2023/10/11 06:31:18;;;;;;;0.10;0.10;;;;;;;12.72;100.00;96629.34;5021504;28;20060;-75
2023/10/11 06:34:15;;;;;;;0.10;0.10;;;;;;;12.75;100.00;96631.50;5022420;28;20045;-74
2023/10/11 06:37:01;;;;;;;0.10;0.10;;;;;;;12.79;100.00;96639.88;5020880;28;20827;-76
2023/10/11 06:42:32;;;;;;;0.10;0.10;;;;;;;12.86;100.00;96643.13;5022624;28;20041;-76
2023/10/11 06:45:20;;;;;;;0.10;0.10;;;;;;;12.84;100.00;96634.53;5022217;28;20041;-76
2023/10/11 06:48:09;;;;;;;0.10;0.10;;;;;;;12.85;100.00;96636.16;5022346;28;20045;-75
2023/10/11 06:50:54;;;;;;;0.08;0.08;;;;;;;12.88;100.00;96635.63;5021041;28;21175;-75
2023/10/11 06:53:42;;;;;;;0.10;0.10;;;;;;;12.99;100.00;96639.19;5021506;28;20057;-75
2023/10/11 06:56:28;;;;;;;0.10;0.10;;;;;;;13.09;100.00;96641.94;5017835;28;20041;-75
2023/10/11 06:59:14;;;;;;;0.10;0.10;;;;;;;13.20;100.00;96637.47;5021687;28;20032;-76
2023/10/11 07:02:00;;;;;;;0.15;0.15;;;;;;;13.29;100.00;96633.19;5019967;28;20049;-75
2023/10/11 07:04:51;;;;;;;0.10;0.10;;;;;;;13.43;100.00;96623.59;5020804;28;20095;-76
2023/10/11 07:07:38;;;;;;;;;;;;;;;13.50;100.00;96615.28;5020472;28;20867;-76
2023/10/11 07:10:28;;;;;;;0.17;0.17;;;;;;;13.58;100.00;96618.28;5026331;28;19921;-76
2023/10/11 07:13:14;;;;;;;0.10;0.10;;;;;;;13.62;100.00;96634.72;5023348;28;20033;-76
2023/10/11 07:16:08;;;;;;;0.10;0.10;;;;;;;13.70;100.00;96641.47;5025677;28;20132;-76
2023/10/11 07:18:56;;;;;;;0.13;0.13;;;;;;;13.78;100.00;96660.59;5026717;28;20041;-76
2023/10/11 07:21:51;;;;;;;0.10;0.10;;;;;;;13.80;100.00;96641.50;5022439;28;20045;-76
2023/10/11 07:24:40;;;;;;;0.10;0.10;;;;;;;13.91;100.00;96648.50;5028061;28;20481;-76
2023/10/11 07:27:26;;;;;;;0.13;0.13;;;;;;;13.96;100.00;96642.34;5025662;28;20106;-76
2023/10/11 07:30:19;;;;;;;0.10;0.10;;;;;;;13.98;100.00;96632.91;5024799;28;20049;-77
2023/10/11 07:33:05;;;;;;;0.10;0.10;;;;;;;13.97;100.00;96630.50;5023614;28;20142;-77
2023/10/11 07:35:51;;;;;;;0.10;0.10;;;;;;;14.12;100.00;96623.28;5025072;28;20136;-76
2023/10/11 07:38:43;;;;;;;0.10;0.10;;;;;;;14.16;100.00;96627.06;5023951;28;20037;-77
2023/10/11 07:41:29;;;;;;;0.10;0.10;;;;;;;14.25;100.00;96634.59;5024442;28;20048;-77
2023/10/11 07:44:18;;;;;;;0.10;0.10;;;;;;;14.32;100.00;96629.75;5023979;28;20795;-77
2023/10/11 07:47:15;;;;;;;0.10;0.10;;;;;;;14.40;100.00;96634.63;5024961;28;20034;-77
2023/10/11 07:50:01;;;;;;;0.10;0.10;;;;;;;14.48;100.00;96636.81;5024392;28;20041;-77
2023/10/11 07:52:47;;;;;;;0.10;0.10;;;;;;;14.55;100.00;96648.09;5024042;28;20604;-77
2023/10/11 07:55:32;;;;;;;0.10;0.10;;;;;;;14.57;100.00;96645.97;5023140;28;20037;-77
2023/10/11 07:58:26;;;;;;;0.10;0.10;;;;;;;14.67;100.00;96655.91;5023541;28;20149;-77
2023/10/11 08:01:25;;;;;;;0.10;0.10;;;;;;;14.77;100.00;96653.22;5022320;28;20112;-77
2023/10/11 08:04:21;;;;;;;0.10;0.10;;;;;;;14.91;100.00;96650.78;5023789;28;20132;-77
2023/10/11 08:07:12;;;;;;;0.20;0.20;;;;;;;14.97;100.00;96639.75;5024225;28;20076;-77
2023/10/11 08:10:10;;;;;;;0.10;0.10;;;;;;;15.15;100.00;96632.97;5024825;28;20067;-77
2023/10/11 08:12:59;;;;;;;0.10;0.10;;;;;;;15.31;100.00;96631.84;5021667;28;20055;-77
2023/10/11 08:15:44;;;;;;;0.10;0.10;;;;;;;15.44;100.00;96635.03;5023297;28;20124;-77
2023/10/11 08:18:32;;;;;;;0.10;0.10;;;;;;;15.66;100.00;96630.16;5024449;28;20045;-78
2023/10/11 08:21:18;;;;;;;0.10;0.10;;;;;;;15.76;100.00;96640.88;5023176;28;20038;-78
2023/10/11 08:24:06;;;;;;;0.10;0.10;;;;;;;15.83;100.00;96643.28;5022331;28;20041;-77
2023/10/11 08:26:53;;;;;;;0.10;0.10;;;;;;;15.90;100.00;96653.78;5021279;28;20041;-77
2023/10/11 08:29:42;;;;;;;0.10;0.10;;;;;;;15.96;100.00;96644.56;5022530;28;20962;-78
2023/10/11 08:32:28;;;;;;;0.10;0.10;;;;;;;16.00;100.00;96646.44;5021095;28;20033;-77
2023/10/11 08:35:31;;;;;;;0.10;0.10;;;;;;;15.97;100.00;96643.50;5036649;28;20037;-77
2023/10/11 08:38:18;;;;;;;0.10;0.10;;;;;;;15.92;100.00;96640.81;5023376;28;20037;-78
2023/10/11 08:41:06;;;;;;;0.10;0.10;;;;;;;15.92;100.00;96627.31;5036495;28;20036;-76
2023/10/11 08:43:56;;;;;;;0.10;0.10;;;;;;;15.93;100.00;96618.94;5023718;28;20429;-76
2023/10/11 08:46:51;;;;;;;0.10;0.10;;;;;;;16.12;100.00;96627.22;5022695;28;20041;-76
2023/10/11 08:49:48;;;;;;;0.10;0.10;;;;;;;16.22;100.00;96621.75;5022760;28;20041;-76
2023/10/11 08:52:34;;;;;;;0.10;0.10;;;;;;;16.26;100.00;96630.88;5024119;28;20502;-76
2023/10/11 08:55:24;;;;;;;0.10;0.10;;;;;;;16.48;100.00;96616.94;5025324;28;20041;-76
2023/10/11 08:58:23;;;;;;;0.20;0.20;;;;;;;16.70;100.00;96621.94;5022535;28;20049;-76
2023/10/11 09:01:09;;;;;;;0.17;0.17;;;;;;;16.80;100.00;96605.63;5020948;28;20044;-76
2023/10/11 09:04:05;;;;;;;0.10;0.10;;;;;;;17.00;100.00;96610.06;5022482;28;20038;-76
2023/10/11 09:06:55;;;;;;;0.10;0.10;;;;;;;17.01;100.00;96614.34;5020687;28;20036;-76
2023/10/11 09:09:45;;;;;;;0.15;0.15;;;;;;;17.17;100.00;96620.41;5021951;28;20047;-76
2023/10/11 09:12:43;;;;;;;0.10;0.10;;;;;;;17.43;100.00;96627.19;5021553;28;20041;-76
2023/10/11 09:15:42;;;;;;;0.10;0.10;;;;;;;17.46;100.00;96621.19;5023600;28;20041;-77
2023/10/11 09:18:34;;;;;;;0.10;0.10;;;;;;;17.59;100.00;96618.84;5019218;28;20530;-77
2023/10/11 09:21:20;;;;;;;0.10;0.10;;;;;;;17.86;100.00;96613.69;5008602;28;20132;-77
2023/10/11 09:24:26;;;;;;;0.10;0.10;;;;;;;17.78;100.00;96622.44;5022194;28;20648;-77
2023/10/11 09:30:19;;;;;;;0.10;0.10;;;;;;;18.02;100.00;96609.66;5022291;28;20130;-77
2023/10/11 09:33:15;;;;;;;0.10;0.10;;;;;;;18.28;100.00;96612.00;5021634;28;20065;-78
2023/10/11 09:36:06;;;;;;;0.10;0.10;;;;;;;18.42;100.00;96610.16;5020736;28;20116;-78
2023/10/11 09:38:55;;;;;;;0.10;0.10;;;;;;;18.76;100.00;96601.00;5022418;28;20608;-78
2023/10/11 09:41:44;;;;;;;0.20;0.20;;;;;;;18.83;100.00;96595.97;5020321;28;20588;-78
2023/10/11 09:44:37;;;;;;;0.20;0.20;;;;;;;19.30;100.00;96600.28;5020821;28;20040;-78
2023/10/11 09:47:24;;;;;;;0.10;0.10;;;;;;;19.80;100.00;96605.81;5018684;28;20051;-78
2023/10/11 09:50:15;;;;;;;0.10;0.10;;;;;;;20.36;100.00;96611.91;5020913;28;20053;-78
2023/10/11 09:53:07;;;;;;;0.20;0.20;;;;;;;21.06;98.91;96612.09;5022424;28;20044;-78
2023/10/11 09:56:00;;;;;;;0.10;0.10;;;;;;;21.94;95.23;96600.44;5033432;28;20041;-78
2023/10/11 09:58:59;;;;;;;0.10;0.10;;;;;;;23.73;83.23;96589.94;5020279;28;20075;-79
2023/10/11 10:01:56;;;;;;;0.10;0.10;;;;;;;24.23;75.86;96597.34;5022492;28;20525;-78
2023/10/11 10:04:49;;;;;;;0.10;0.10;;;;;;;24.51;70.89;96603.09;5020245;28;20681;-77
2023/10/11 10:07:45;;;;;;;0.10;0.10;;;;;;;25.93;63.72;96594.31;5020620;28;20046;-77
2023/10/11 10:10:51;;;;;;;0.10;0.10;;;;;;;26.33;60.24;96591.63;5032800;28;20915;-77
2023/10/11 10:14:19;;;;;;;0.20;0.20;;;;;;;26.71;49.12;96604.09;5020554;28;20044;-77
2023/10/11 10:17:15;;;;;;;0.10;0.10;;;;;;;28.06;45.26;96600.50;5022177;28;20152;-77
2023/10/11 10:20:33;;;;;;;0.13;0.13;;;;;;;26.58;48.53;96613.50;5022608;28;20045;-78
2023/10/11 10:23:22;;;;;;;0.20;0.20;;;;;;;28.35;41.29;96610.22;5035695;28;20040;-77
2023/10/11 10:26:10;;;;;;;0.10;0.10;;;;;;;29.67;41.05;96600.63;5015214;28;20487;-78
2023/10/11 10:28:57;;;;;;;0.10;0.10;;;;;;;30.94;35.35;96594.53;5019435;28;20041;-79
2023/10/11 10:32:18;;;;;;;0.10;0.10;;;;;;;29.73;35.34;96603.03;5016926;28;20128;-78
2023/10/11 10:35:20;;;;;;;0.10;0.10;;;;;;;30.28;33.68;96611.81;4961913;28;20069;-79
2023/10/11 10:38:09;;;;;;;0.10;0.10;;;;;;;30.36;34.19;96603.25;5019940;28;20076;-79
2023/10/11 10:41:25;;;;;;;0.10;0.10;;;;;;;30.89;32.31;96610.63;5019144;28;20053;-79
2023/10/11 10:44:11;;;;;;;0.40;0.40;;;;;;;30.68;33.59;96605.66;5011766;28;20577;-78
2023/10/11 10:46:59;;;;;;;0.13;0.13;;;;;;;30.41;33.07;96607.63;5021208;28;20164;-79
2023/10/11 10:49:47;;;;;;;0.10;0.10;;;;;;;30.36;35.12;96613.50;5026703;28;20057;-79
2023/10/11 10:52:34;;;;;;;0.17;0.17;;;;;;;30.83;33.83;96598.34;5023663;28;20080;-79
2023/10/11 10:55:20;;;;;;;0.10;0.10;;;;;;;33.05;31.67;96607.19;5025100;28;20030;-79
2023/10/11 10:58:06;;;;;;;0.10;0.10;;;;;;;33.15;30.11;96611.97;5023644;28;20538;-79
2023/10/11 11:00:53;;;;;;;0.10;0.10;;;;;;;34.30;27.80;96602.53;5024413;28;20080;-80
2023/10/11 11:03:41;;;;;;;0.10;0.10;;;;;;;35.73;28.91;96603.50;5023264;28;20035;-79
2023/10/11 11:06:40;;;;;;;0.00;0.00;;;;;;;35.99;25.62;96601.31;5024373;28;20142;-79
2023/10/11 11:09:27;;;;;;;0.10;0.10;;;;;;;36.26;25.73;96596.66;5025975;28;20068;-79
2023/10/11 11:12:14;;;;;;;0.10;0.10;;;;;;;36.73;25.76;96599.75;5022359;28;20048;-79
2023/10/11 11:15:00;;;;;;;0.10;0.10;;;;;;;36.81;25.79;96589.28;5007952;28;20045;-79
2023/10/11 11:17:48;;;;;;;0.10;0.10;;;;;;;35.11;26.20;96595.16;5022301;28;20041;-79
2023/10/11 11:20:40;;;;;;;0.10;0.10;;;;;;;33.41;28.99;96595.03;5022756;28;20343;-79
2023/10/11 11:23:27;;;;;;;0.10;0.10;;;;;;;34.43;27.46;96591.81;5024893;28;20041;-79
2023/10/11 11:26:15;;;;;;;0.10;0.10;;;;;;;33.78;29.34;96591.09;5023976;28;20239;-79
2023/10/11 11:29:16;;;;;;;0.10;0.10;;;;;;;34.12;27.18;96585.91;5023765;28;20041;-79
2023/10/11 11:32:15;;;;;;;0.10;0.10;;;;;;;34.15;28.04;96582.34;5021816;28;20059;-79
2023/10/11 11:35:28;;;;;;;0.10;0.10;;;;;;;37.46;25.09;96586.47;5022363;28;20045;-79
2023/10/11 11:38:20;;;;;;;0.10;0.10;;;;;;;36.00;23.67;96586.97;5016060;28;20056;-81
2023/10/11 11:41:15;;;;;;;0.00;0.00;;;;;;;35.16;25.33;96587.16;5026134;28;20040;-80
2023/10/11 11:44:03;;;;;;;0.10;0.10;;;;;;;33.26;26.77;96590.63;5023991;28;20059;-79
2023/10/11 11:46:51;;;;;;;0.10;0.10;;;;;;;34.27;25.26;96581.91;5022187;28;20048;-80
2023/10/11 11:49:37;;;;;;;0.10;0.10;;;;;;;34.09;25.86;96570.06;5026106;28;20041;-80
2023/10/11 11:52:23;;;;;;;0.05;0.05;;;;;;;35.27;26.07;96567.63;5021584;28;20033;-80
2023/10/11 11:55:09;;;;;;;0.10;0.10;;;;;;;35.35;24.08;96565.59;5020677;28;20056;-80
2023/10/11 11:57:56;;;;;;;0.10;0.10;;;;;;;34.35;24.61;96561.28;5023353;28;20049;-80
2023/10/11 12:00:59;;;;;;;0.10;0.10;;;;;;;35.38;23.82;96559.22;5021086;28;20045;-80
2023/10/11 12:03:54;;;;;;;0.10;0.10;;;;;;;35.43;24.43;96554.03;5022785;28;20899;-80
2023/10/11 12:06:40;;;;;;;0.10;0.10;;;;;;;35.08;26.66;96559.81;5023405;28;20033;-80
2023/10/11 12:09:33;;;;;;;0.10;0.10;;;;;;;33.26;26.08;96565.66;5024612;28;20490;-80
2023/10/11 12:12:18;;;;;;;0.10;0.10;;;;;;;32.91;27.21;96564.38;5025537;28;20913;-80
2023/10/11 12:15:07;;;;;;;0.10;0.10;;;;;;;34.92;25.48;96543.63;5022508;28;20037;-80
2023/10/11 12:17:53;;;;;;;0.10;0.10;;;;;;;36.11;24.77;96544.31;5023522;28;20037;-80
2023/10/11 12:20:39;;;;;;;0.10;0.10;;;;;;;37.95;22.82;96528.25;5023713;28;20041;-81
2023/10/11 12:23:25;;;;;;;0.10;0.10;;;;;;;35.17;23.83;96532.34;5025671;28;20564;-80
2023/10/11 12:26:11;;;;;;;0.05;0.05;;;;;;;35.71;23.93;96527.16;5022312;28;20144;-78
2023/10/11 12:28:58;;;;;;;0.10;0.10;;;;;;;36.97;22.89;96519.84;5022877;28;20091;-79
2023/10/11 12:31:44;;;;;;;0.10;0.10;;;;;;;36.98;22.83;96515.81;5032607;28;20068;-80
2023/10/11 12:34:32;;;;;;;0.10;0.10;;;;;;;37.69;22.63;96516.72;5024074;28;20102;-79
2023/10/11 12:37:17;;;;;;;0.10;0.10;;;;;;;36.12;22.16;96513.28;5022502;28;20033;-80
2023/10/11 12:40:12;;;;;;;0.10;0.10;;;;;;;36.21;24.24;96513.56;5021502;28;20050;-80
2023/10/11 12:42:57;;;;;;;0.10;0.10;;;;;;;37.23;22.54;96506.28;5021033;28;20138;-80
2023/10/11 12:45:43;;;;;;;0.10;0.10;;;;;;;37.13;22.65;96502.47;5021866;28;20068;-80
2023/10/11 12:48:29;;;;;;;0.10;0.10;;;;;;;36.42;22.98;96495.03;5023942;28;20049;-80
2023/10/11 12:51:15;;;;;;;0.03;0.03;;;;;;;35.70;24.65;96495.78;5020602;28;20128;-81
2023/10/11 12:54:01;;;;;;;0.10;0.10;;;;;;;35.44;25.37;96485.28;5022761;28;20048;-80
2023/10/11 12:56:47;;;;;;;0.00;0.00;;;;;;;33.81;26.39;96505.06;5022664;28;20037;-80
2023/10/11 12:59:35;;;;;;;0.00;0.00;;;;;;;32.70;28.00;96503.38;5028085;28;20699;-81
2023/10/11 13:02:22;;;;;;;0.00;0.00;;;;;;;32.47;27.49;96502.91;5028004;28;20672;-80
2023/10/11 13:05:08;;;;;;;0.10;0.10;;;;;;;31.50;28.45;96502.28;5026349;28;20053;-80
2023/10/11 13:07:54;;;;;;;0.00;0.00;;;;;;;32.21;28.21;96488.13;5022067;28;20046;-80
2023/10/11 13:10:43;;;;;;;0.10;0.10;;;;;;;31.94;28.08;96495.91;5020806;28;20076;-80
2023/10/11 13:13:29;;;;;;;0.10;0.10;;;;;;;32.36;27.65;96491.78;5022899;28;20052;-80
2023/10/11 13:16:26;;;;;;;0.00;0.00;;;;;;;32.57;27.59;96491.06;5022593;28;20051;-81
2023/10/11 13:19:17;;;;;;;0.05;0.05;;;;;;;32.06;28.04;96494.78;5022624;28;20171;-80
2023/10/11 13:22:09;;;;;;;0.00;0.00;;;;;;;32.18;26.90;96488.91;5021258;28;20067;-80
2023/10/11 13:24:55;;;;;;;0.10;0.10;;;;;;;32.16;28.31;96480.22;5019895;28;20049;-80
2023/10/11 13:27:42;;;;;;;0.00;0.00;;;;;;;34.35;26.10;96480.75;5021770;28;20073;-80
2023/10/11 13:30:36;;;;;;;0.00;0.00;;;;;;;34.62;24.45;96469.91;5022440;28;20569;-80
2023/10/11 13:38:20;;;;;;;0.00;0.00;;;;;;;34.01;26.22;96472.16;5022803;28;20063;-80
2023/10/11 13:46:01;;;;;;;0.03;0.03;;;;;;;33.50;26.49;96473.41;5023814;28;20451;-80
2023/10/11 13:48:53;;;;;;;0.03;0.03;;;;;;;33.89;26.27;96477.31;5022382;28;20028;-80
2023/10/11 13:51:39;;;;;;;0.00;0.00;;;;;;;31.51;27.86;96469.91;5022057;28;20052;-79
2023/10/11 13:54:32;;;;;;;0.10;0.10;;;;;;;31.49;28.11;96478.59;5025443;28;20176;-79
2023/10/11 13:57:18;;;;;;;0.10;0.10;;;;;;;31.30;28.09;96474.13;5024110;28;20033;-78
2023/10/11 14:06:30;;;;;;;0.10;0.10;;;;;;;32.58;28.06;96451.09;5021854;28;20165;-79